Main page
METAR-TAF:

METAR-TAF

Airports :

Rantoul National Aviation Center Airport (Frank Elliott Field)

Rantoul, Illinois, United States

latitude: 40-17-37N, longitude: 088-08-33W, elevation: 738 ft

Current weather observation

The report was made 23 minutes ago, at 10:35 UTC
Wind 7 mph from the South
Temperature 30°F
Humidity 93%
Pressure 30.06 in. Hg
Visibility: 10 miles
Clear sky

METAR: KTIP 231035Z AUTO 19006KT 10SM CLR M01/M02 A3006 RMK AO2 T10091025

Time: 04:58 (10:58 UTC)


TAF: missing

Weather observations and forecasts of more than 4000 airports (METAR and TAF reports).

The available stations are represented by yellow and red dots on the map.

Hover mouse over dot to see the name of the station.

Then click to see weather observations and forecasts.

To change the map : click on the green buttons with a black cross to zoom in, on the green button with a dash to zoom out, or on the green arrows for adjacent maps.


METAR-TAF: